createdAt,value
2019-03-17T00:00:38.387Z,0.60
2019-03-17T00:03:07.366Z,0.70
2019-03-17T00:05:36.247Z,0.62
2019-03-17T00:08:05.159Z,0.70
2019-03-17T00:10:34.153Z,0.72
2019-03-17T00:13:03.091Z,0.68
2019-03-17T00:15:32.036Z,0.80
2019-03-17T00:18:01.062Z,0.80
2019-03-17T00:20:30.142Z,1.10
2019-03-17T00:22:59.102Z,1.40
2019-03-17T00:25:27.986Z,1.30
2019-03-17T00:27:56.888Z,1.52
2019-03-17T00:30:25.926Z,1.07
2019-03-17T00:32:54.845Z,0.88
2019-03-17T00:35:23.714Z,1.15
2019-03-17T00:37:52.809Z,1.02
2019-03-17T00:40:21.703Z,0.78
2019-03-17T00:42:50.636Z,1.17
2019-03-17T00:45:19.900Z,1.02
2019-03-17T00:47:48.784Z,1.05
2019-03-17T00:50:17.681Z,1.10
2019-03-17T00:52:46.919Z,1.05
2019-03-17T00:55:18.265Z,0.82
2019-03-17T00:57:47.147Z,0.88
2019-03-17T01:00:16.931Z,1.05
2019-03-17T01:02:45.861Z,0.80
2019-03-17T01:05:14.738Z,1.00
2019-03-17T01:07:43.611Z,1.02
2019-03-17T01:10:12.858Z,0.90
2019-03-17T01:12:44.775Z,1.37
2019-03-17T01:15:17.323Z,0.88
2019-03-17T01:17:46.364Z,1.30
2019-03-17T01:20:15.431Z,1.02
2019-03-17T01:22:44.384Z,0.90
2019-03-17T01:25:14.595Z,1.17
2019-03-17T01:27:43.588Z,1.20
2019-03-17T01:30:30.683Z,0.90
2019-03-17T01:32:59.995Z,1.12
2019-03-17T01:35:28.945Z,1.00
2019-03-17T01:37:57.824Z,0.88
2019-03-17T01:40:26.732Z,0.90
2019-03-17T01:42:55.759Z,1.20
2019-03-17T01:45:24.635Z,1.02
2019-03-17T01:47:53.924Z,1.22
2019-03-17T01:50:23.077Z,1.37
2019-03-17T01:52:51.945Z,0.95
2019-03-17T01:55:20.836Z,0.93
2019-03-17T01:57:49.820Z,1.00
2019-03-17T02:00:18.760Z,1.05
2019-03-17T02:02:47.684Z,1.35
2019-03-17T02:05:21.854Z,1.30
2019-03-17T02:07:47.124Z,1.32
2019-03-17T02:10:16.203Z,1.37
2019-03-17T02:12:45.147Z,1.00
2019-03-17T02:15:14.096Z,0.90
2019-03-17T02:17:42.983Z,0.98
2019-03-17T02:20:12.022Z,1.30
2019-03-17T02:22:40.901Z,1.10
2019-03-17T02:25:12.421Z,1.10
2019-03-17T02:27:41.351Z,0.80
2019-03-17T02:30:14.210Z,0.70
2019-03-17T02:32:43.078Z,0.88
2019-03-17T02:35:11.982Z,1.10
2019-03-17T02:37:40.917Z,0.82
2019-03-17T02:40:11.834Z,1.02
2019-03-17T02:42:40.764Z,0.60
2019-03-17T02:45:10.883Z,1.10
2019-03-17T02:47:39.838Z,1.20
2019-03-17T02:50:10.721Z,1.17
2019-03-17T02:52:39.736Z,1.17
2019-03-17T02:55:09.520Z,0.70
2019-03-17T02:57:38.407Z,1.10
2019-03-17T03:00:10.590Z,1.07
2019-03-17T03:02:39.946Z,1.07
2019-03-17T03:05:09.305Z,0.98
2019-03-17T03:07:38.255Z,1.62
2019-03-17T03:10:07.186Z,1.35
2019-03-17T03:12:36.077Z,1.10
2019-03-17T03:15:07.559Z,1.02
2019-03-17T03:17:36.477Z,1.10
2019-03-17T03:20:08.218Z,1.30
2019-03-17T03:22:37.195Z,0.90
2019-03-17T03:25:11.440Z,1.22
2019-03-17T03:27:40.335Z,1.15
2019-03-17T03:30:16.285Z,1.10
2019-03-17T03:32:45.173Z,0.95
2019-03-17T03:35:14.623Z,1.37
2019-03-17T03:37:43.562Z,1.62
2019-03-17T03:40:15.240Z,0.90
2019-03-17T03:42:43.753Z,1.05
2019-03-17T03:45:14.833Z,1.10
2019-03-17T03:47:43.771Z,0.93
2019-03-17T03:50:15.187Z,1.02
2019-03-17T03:52:43.803Z,1.10
2019-03-17T03:55:12.725Z,1.10
2019-03-17T03:57:41.596Z,1.10
2019-03-17T04:00:17.151Z,0.93
2019-03-17T04:02:46.136Z,1.10
2019-03-17T04:05:15.126Z,1.00
2019-03-17T04:07:44.489Z,1.12
2019-03-17T04:10:13.945Z,1.45
2019-03-17T04:12:42.818Z,1.40
2019-03-17T04:15:12.115Z,1.10
2019-03-17T04:17:41.050Z,0.95
2019-03-17T04:20:11.743Z,0.90
2019-03-17T04:22:40.640Z,0.88
2019-03-17T04:25:10.268Z,1.20
2019-03-17T04:27:39.190Z,1.27
2019-03-17T04:30:13.839Z,1.22
2019-03-17T04:32:42.769Z,0.88
2019-03-17T04:35:11.643Z,1.00
2019-03-17T04:37:40.538Z,1.20
2019-03-17T04:40:10.041Z,1.15
2019-03-17T04:42:38.907Z,1.15
2019-03-17T04:45:08.659Z,1.20
2019-03-17T04:47:37.578Z,1.15
2019-03-17T04:50:08.419Z,1.00
2019-03-17T04:52:37.293Z,1.05
2019-03-17T04:55:07.864Z,1.02
2019-03-17T04:57:36.796Z,1.50
2019-03-17T05:00:08.845Z,1.20
2019-03-17T05:02:37.731Z,1.37
2019-03-17T05:05:08.139Z,1.00
2019-03-17T05:07:36.997Z,1.00
2019-03-17T05:10:10.365Z,1.32
2019-03-17T05:12:39.279Z,0.75
2019-03-17T05:15:10.540Z,1.22
2019-03-17T05:17:40.154Z,0.90
2019-03-17T05:20:11.494Z,0.90
2019-03-17T05:22:40.582Z,1.00
2019-03-17T05:25:10.053Z,0.80
2019-03-17T05:27:38.983Z,0.90
2019-03-17T05:30:10.284Z,0.75
2019-03-17T05:32:39.159Z,1.10
2019-03-17T05:35:08.086Z,1.42
2019-03-17T05:37:36.972Z,1.07
2019-03-17T05:40:09.492Z,0.85
2019-03-17T05:42:40.688Z,0.90
2019-03-17T05:45:09.751Z,0.90
2019-03-17T05:47:38.686Z,0.88
2019-03-17T05:50:09.285Z,0.93
2019-03-17T05:52:38.177Z,1.12
2019-03-17T05:55:09.225Z,1.00
2019-03-17T05:57:38.432Z,1.07
2019-03-17T06:00:14.382Z,0.90
2019-03-17T06:02:43.219Z,1.27
2019-03-17T06:05:12.301Z,1.27
2019-03-17T06:07:41.253Z,1.10
2019-03-17T06:10:10.617Z,1.27
2019-03-17T06:12:39.565Z,0.85
2019-03-17T06:15:11.250Z,1.37
2019-03-17T06:17:40.132Z,1.15
2019-03-17T06:20:11.319Z,0.98
2019-03-17T06:22:40.685Z,1.00
2019-03-17T06:25:10.552Z,1.02
2019-03-17T06:27:39.511Z,1.20
2019-03-17T06:30:13.462Z,1.10
2019-03-17T06:32:42.319Z,1.27
2019-03-17T06:35:11.404Z,1.25
2019-03-17T06:37:40.284Z,0.85
2019-03-17T06:40:13.862Z,1.00
2019-03-17T06:42:42.847Z,0.88
2019-03-17T06:45:13.495Z,0.85
2019-03-17T06:47:42.366Z,0.70
2019-03-17T06:50:13.460Z,1.07
2019-03-17T06:52:42.835Z,0.70
2019-03-17T06:55:13.326Z,1.20
2019-03-17T06:57:42.239Z,1.45
2019-03-17T07:00:14.403Z,0.88
2019-03-17T07:02:43.736Z,0.90
2019-03-17T07:05:12.700Z,0.93
2019-03-17T07:07:44.202Z,0.80
2019-03-17T07:10:12.200Z,0.88
2019-03-17T07:12:41.111Z,0.95
2019-03-17T07:15:11.699Z,1.00
2019-03-17T07:17:40.641Z,0.90
2019-03-17T07:20:12.397Z,0.90
2019-03-17T07:22:41.372Z,0.65
2019-03-17T07:25:10.348Z,0.80
2019-03-17T07:27:39.215Z,0.90
2019-03-17T07:30:15.763Z,0.80
2019-03-17T07:32:44.634Z,0.85
2019-03-17T07:35:15.509Z,0.88
2019-03-17T07:37:55.898Z,0.82
2019-03-17T07:40:15.295Z,0.98
2019-03-17T07:42:44.266Z,0.75
2019-03-17T07:45:13.355Z,0.80
2019-03-17T07:47:42.243Z,0.80
2019-03-17T07:50:13.925Z,0.80
2019-03-17T07:52:42.927Z,0.60
2019-03-17T07:55:11.908Z,0.72
2019-03-17T07:57:40.788Z,1.10
2019-03-17T08:00:12.408Z,1.05
2019-03-17T08:02:41.404Z,0.60
2019-03-17T08:05:11.126Z,0.62
2019-03-17T08:07:40.574Z,0.85
2019-03-17T08:10:15.868Z,0.60
2019-03-17T08:12:44.885Z,0.60
2019-03-17T08:15:14.776Z,0.72
2019-03-17T08:17:43.668Z,0.70
2019-03-17T08:20:13.394Z,0.60
2019-03-17T08:22:42.215Z,0.68
2019-03-17T08:25:12.852Z,0.80
2019-03-17T08:27:41.740Z,0.75
2019-03-17T08:30:15.513Z,0.50
2019-03-17T08:32:44.527Z,0.82
2019-03-17T08:35:13.426Z,0.70
2019-03-17T08:37:42.296Z,0.70
2019-03-17T08:40:18.303Z,0.80
2019-03-17T08:42:47.159Z,0.50
2019-03-17T08:45:16.142Z,0.60
2019-03-17T08:47:57.541Z,0.50
2019-03-17T08:50:15.893Z,0.68
2019-03-17T08:52:44.771Z,0.60
2019-03-17T08:55:16.330Z,0.62
2019-03-17T08:57:45.213Z,0.80
2019-03-17T09:00:17.157Z,0.57
2019-03-17T09:02:46.081Z,0.50
2019-03-17T09:05:15.011Z,0.50
2019-03-17T09:07:43.875Z,0.70
2019-03-17T09:10:14.025Z,0.80
2019-03-17T09:12:42.887Z,0.60
2019-03-17T09:15:11.915Z,0.50
2019-03-17T09:17:40.792Z,0.42
2019-03-17T09:20:11.970Z,0.50
2019-03-17T09:22:40.906Z,0.60
2019-03-17T09:25:12.836Z,0.60
2019-03-17T09:27:41.765Z,0.68
2019-03-17T09:30:15.616Z,0.50
2019-03-17T09:32:44.478Z,0.50
2019-03-17T09:35:13.532Z,0.50
2019-03-17T09:37:42.458Z,0.60
2019-03-17T09:40:13.487Z,0.47
2019-03-17T09:42:43.938Z,0.70
2019-03-17T09:45:14.235Z,0.50
2019-03-17T09:47:43.237Z,0.80
2019-03-17T09:50:14.727Z,0.60
2019-03-17T09:52:43.647Z,0.45
2019-03-17T09:55:12.920Z,0.50
2019-03-17T09:57:42.274Z,0.50
2019-03-17T10:00:16.798Z,0.40
2019-03-17T10:02:45.748Z,0.88
2019-03-17T10:05:14.730Z,0.60
2019-03-17T10:07:43.735Z,0.50
2019-03-17T10:10:18.597Z,0.50
2019-03-17T10:15:16.824Z,0.88
2019-03-17T10:17:45.840Z,0.40
2019-03-17T10:20:21.109Z,0.60
2019-03-17T10:22:49.984Z,0.70
2019-03-17T10:25:18.969Z,0.40
2019-03-17T10:27:48.011Z,0.40
2019-03-17T10:30:19.154Z,0.37
2019-03-17T10:32:48.359Z,0.40
2019-03-17T10:35:17.392Z,0.30
2019-03-17T10:37:46.331Z,0.40
2019-03-17T10:40:16.810Z,0.37
2019-03-17T10:42:45.820Z,0.40
2019-03-17T10:45:16.123Z,0.50
2019-03-17T10:47:45.157Z,0.50
2019-03-17T10:50:18.541Z,0.50
2019-03-17T10:52:47.563Z,0.53
2019-03-17T10:55:35.763Z,0.50
2019-03-17T10:58:04.707Z,0.40
2019-03-17T11:00:33.789Z,0.30
2019-03-17T11:03:02.723Z,0.42
2019-03-17T11:05:31.591Z,0.57
2019-03-17T11:08:00.503Z,0.45
2019-03-17T11:10:29.598Z,0.42
2019-03-17T11:12:58.489Z,0.70
2019-03-17T11:15:27.499Z,0.72
2019-03-17T11:17:56.383Z,0.72
2019-03-17T11:20:25.426Z,0.85
2019-03-17T11:22:54.524Z,0.68
2019-03-17T11:25:23.457Z,1.35
2019-03-17T11:27:52.321Z,1.10
2019-03-17T11:30:22.659Z,0.90
2019-03-17T11:32:51.780Z,0.95
2019-03-17T11:35:20.666Z,1.07
2019-03-17T11:37:49.731Z,0.93
2019-03-17T11:40:19.806Z,0.90
2019-03-17T11:42:50.138Z,0.70
2019-03-17T11:45:19.637Z,1.15
2019-03-17T11:47:48.519Z,1.15
2019-03-17T11:50:22.089Z,1.30
2019-03-17T11:52:51.674Z,1.30
2019-03-17T11:55:20.546Z,2.00
2019-03-17T11:57:49.444Z,1.60
2019-03-17T12:00:19.758Z,1.67
2019-03-17T12:02:48.635Z,1.27
2019-03-17T12:05:17.528Z,0.88
2019-03-17T12:07:46.470Z,1.65
2019-03-17T12:10:22.639Z,1.40
2019-03-17T12:12:51.569Z,2.47
2019-03-17T12:15:28.251Z,2.05
2019-03-17T12:17:57.205Z,1.85
2019-03-17T12:20:26.353Z,2.17
2019-03-17T12:22:55.222Z,2.15
2019-03-17T12:25:24.164Z,2.00
2019-03-17T12:27:53.071Z,1.95
2019-03-17T12:30:27.070Z,2.50
2019-03-17T12:32:56.147Z,2.12
2019-03-17T12:35:25.056Z,2.20
2019-03-17T12:37:54.148Z,2.00
2019-03-17T12:40:23.346Z,2.75
2019-03-17T12:42:52.206Z,3.60
2019-03-17T12:45:21.137Z,3.83
2019-03-17T12:47:50.037Z,3.65
2019-03-17T12:50:24.026Z,4.22
2019-03-17T12:52:52.876Z,3.50
2019-03-17T12:55:21.759Z,3.05
2019-03-17T12:57:50.701Z,3.30
2019-03-17T13:00:24.793Z,3.02
2019-03-17T13:02:53.652Z,2.83
2019-03-17T13:05:22.635Z,2.42
2019-03-17T13:07:51.546Z,3.35
2019-03-17T13:10:21.863Z,3.27
2019-03-17T13:12:51.315Z,3.30
2019-03-17T13:15:20.313Z,2.87
2019-03-17T13:17:49.198Z,3.30
2019-03-17T13:20:19.386Z,3.60
2019-03-17T13:22:48.326Z,3.20
2019-03-17T13:25:17.192Z,3.30
2019-03-17T13:27:46.072Z,3.25
2019-03-17T13:30:19.606Z,4.05
2019-03-17T13:32:51.362Z,4.00
2019-03-17T13:35:20.243Z,3.15
2019-03-17T13:37:49.294Z,2.55
2019-03-17T13:40:28.981Z,3.15
2019-03-17T13:42:50.558Z,2.58
2019-03-17T13:45:19.414Z,3.35
2019-03-17T13:47:48.391Z,2.75
2019-03-17T13:50:18.853Z,1.82
2019-03-17T13:52:50.477Z,1.95
2019-03-17T13:55:22.166Z,1.77
2019-03-17T13:58:08.582Z,2.37
2019-03-17T14:00:37.638Z,2.05
2019-03-17T14:03:06.514Z,2.20
2019-03-17T14:05:35.424Z,2.20
2019-03-17T14:08:04.465Z,2.33
2019-03-17T14:10:41.115Z,2.58
2019-03-17T14:13:04.122Z,2.83
2019-03-17T14:15:33.157Z,3.27
2019-03-17T14:18:02.060Z,3.45
2019-03-17T14:20:30.957Z,3.15
2019-03-17T14:22:59.891Z,2.90
2019-03-17T14:25:31.441Z,3.30
2019-03-17T14:28:01.032Z,2.80
2019-03-17T14:30:29.953Z,3.90
2019-03-17T14:32:58.832Z,2.90
2019-03-17T14:35:27.716Z,4.30
2019-03-17T14:37:57.228Z,2.72
2019-03-17T14:40:27.253Z,3.02
2019-03-17T14:42:56.190Z,2.92
2019-03-17T14:45:25.070Z,3.05
2019-03-17T14:47:53.994Z,3.95
2019-03-17T14:50:24.973Z,2.72
2019-03-17T14:52:54.661Z,3.45
2019-03-17T14:55:23.653Z,2.80
2019-03-17T14:57:52.639Z,2.52
2019-03-17T15:00:23.065Z,2.65
2019-03-17T15:02:52.266Z,4.12
2019-03-17T15:05:21.412Z,3.80
2019-03-17T15:07:50.414Z,3.60
2019-03-17T15:10:21.150Z,3.70
2019-03-17T15:12:50.251Z,4.22
2019-03-17T15:15:20.400Z,3.83
2019-03-17T15:17:49.636Z,3.08
2019-03-17T15:20:25.923Z,2.87
2019-03-17T15:22:54.909Z,3.12
2019-03-17T15:25:23.816Z,3.27
2019-03-17T15:27:52.891Z,2.30
2019-03-17T15:30:29.947Z,2.20
2019-03-17T15:32:58.979Z,2.00
2019-03-17T15:35:27.951Z,1.90
2019-03-17T15:37:56.889Z,2.35
2019-03-17T15:40:25.897Z,2.58
2019-03-17T15:42:54.839Z,2.33
2019-03-17T15:45:24.906Z,2.67
2019-03-17T15:47:53.849Z,3.25
2019-03-17T15:50:30.019Z,4.00
2019-03-17T15:52:59.055Z,2.70
2019-03-17T15:55:28.039Z,3.40
2019-03-17T15:57:56.934Z,3.33
2019-03-17T16:00:27.099Z,3.85
2019-03-17T16:02:56.318Z,2.87
2019-03-17T16:05:25.390Z,3.55
2019-03-17T16:07:54.438Z,2.42
2019-03-17T16:10:28.968Z,2.75
2019-03-17T16:12:57.909Z,2.62
2019-03-17T16:15:27.177Z,2.50
2019-03-17T16:17:56.571Z,2.22
2019-03-17T16:20:26.643Z,1.70
2019-03-17T16:22:55.699Z,1.42
2019-03-17T16:25:30.229Z,2.87
2019-03-17T16:27:59.119Z,2.22
2019-03-17T16:30:29.705Z,2.20
2019-03-17T16:32:58.803Z,2.65
2019-03-17T16:35:27.758Z,2.92
2019-03-17T16:37:57.099Z,3.12
2019-03-17T16:40:34.205Z,3.00
2019-03-17T16:43:03.350Z,2.67
2019-03-17T16:45:32.382Z,3.70
2019-03-17T16:48:01.373Z,3.22
2019-03-17T16:50:30.289Z,3.33
2019-03-17T16:52:59.424Z,3.30
2019-03-17T16:55:28.307Z,3.35
2019-03-17T16:57:57.387Z,2.50
2019-03-17T17:00:26.958Z,3.33
2019-03-17T17:02:55.872Z,3.37
2019-03-17T17:05:26.246Z,4.10
2019-03-17T17:07:55.498Z,3.70
2019-03-17T17:10:26.815Z,3.85
2019-03-17T17:12:55.705Z,3.22
2019-03-17T17:15:35.630Z,3.40
2019-03-17T17:18:04.705Z,3.45
2019-03-17T17:20:36.511Z,3.98
2019-03-17T17:23:05.483Z,3.10
2019-03-17T17:25:34.359Z,4.03
2019-03-17T17:28:03.246Z,3.00
2019-03-17T17:30:32.280Z,3.80
2019-03-17T17:33:01.162Z,3.17
2019-03-17T17:35:30.059Z,3.02
2019-03-17T17:37:59.003Z,3.77
2019-03-17T17:40:28.373Z,3.70
2019-03-17T17:42:57.248Z,4.05
2019-03-17T17:45:26.787Z,3.85
2019-03-17T17:47:55.648Z,4.28
2019-03-17T17:50:32.535Z,4.40
2019-03-17T17:53:01.432Z,4.25
2019-03-17T17:55:30.310Z,4.10
2019-03-17T17:57:59.252Z,3.70
2019-03-17T18:00:36.020Z,4.45
2019-03-17T18:03:05.694Z,4.30
2019-03-17T18:05:34.580Z,3.77
2019-03-17T18:08:03.469Z,3.55
2019-03-17T18:10:32.449Z,3.77
2019-03-17T18:13:01.385Z,7.35
2019-03-17T18:15:32.302Z,4.80
2019-03-17T18:18:01.242Z,3.55
2019-03-17T18:20:33.907Z,4.53
2019-03-17T18:23:02.809Z,5.30
2019-03-17T18:25:31.730Z,4.35
2019-03-17T18:28:00.598Z,4.33
2019-03-17T18:30:29.482Z,2.90
2019-03-17T18:32:58.420Z,3.72
2019-03-17T18:35:27.318Z,4.78
2019-03-17T18:37:56.574Z,3.77
2019-03-17T18:40:25.717Z,3.85
2019-03-17T18:42:54.601Z,4.58
2019-03-17T18:45:25.127Z,3.62
2019-03-17T18:47:54.163Z,4.53
2019-03-17T18:50:23.072Z,4.10
2019-03-17T18:52:51.996Z,3.98
2019-03-17T18:55:20.886Z,3.62
2019-03-17T18:57:49.824Z,4.62
2019-03-17T19:00:24.562Z,4.20
2019-03-17T19:02:53.441Z,6.30
2019-03-17T19:05:22.344Z,13.72
2019-03-17T19:07:51.290Z,7.70
2019-03-17T19:10:23.501Z,4.42
2019-03-17T19:12:52.394Z,3.37
2019-03-17T19:15:25.435Z,3.65
2019-03-17T19:17:54.367Z,3.45
2019-03-17T19:20:24.753Z,4.83
2019-03-17T19:22:54.403Z,4.17
2019-03-17T19:25:24.698Z,4.10
2019-03-17T19:27:53.839Z,4.30
2019-03-17T19:30:24.558Z,3.95
2019-03-17T19:32:53.572Z,4.35
2019-03-17T19:35:24.800Z,5.20
2019-03-17T19:37:53.841Z,3.77
2019-03-17T19:40:24.176Z,3.83
2019-03-17T19:42:59.726Z,3.08
2019-03-17T19:45:26.331Z,3.33
2019-03-17T19:47:55.656Z,3.15
2019-03-17T19:50:25.946Z,2.45
2019-03-17T19:52:58.705Z,4.58
2019-03-17T19:55:27.392Z,4.83
2019-03-17T19:57:56.974Z,4.45
2019-03-17T20:00:27.222Z,4.22
2019-03-17T20:02:56.189Z,3.87
2019-03-17T20:05:25.407Z,4.03
2019-03-17T20:07:54.328Z,4.08
2019-03-17T20:10:31.146Z,4.37
2019-03-17T20:13:10.724Z,5.65
2019-03-17T20:15:31.024Z,4.67
2019-03-17T20:18:00.880Z,5.90
2019-03-17T20:20:32.400Z,4.50
2019-03-17T20:23:04.364Z,4.53
2019-03-17T20:25:38.858Z,3.65
2019-03-17T20:28:27.520Z,3.17
2019-03-17T20:30:56.715Z,2.42
2019-03-17T20:33:25.801Z,2.70
2019-03-17T20:35:55.028Z,3.37
2019-03-17T20:38:24.067Z,4.15
2019-03-17T20:40:54.552Z,3.27
2019-03-17T20:43:34.177Z,3.12
2019-03-17T20:45:55.025Z,3.60
2019-03-17T20:48:26.134Z,2.25
2019-03-17T20:50:55.102Z,2.87
2019-03-17T20:53:23.998Z,4.15
2019-03-17T20:55:52.924Z,3.05
2019-03-17T20:58:21.794Z,3.75
2019-03-17T21:00:56.687Z,2.95
2019-03-17T21:03:21.642Z,3.15
2019-03-17T21:05:52.175Z,3.58
2019-03-17T21:08:21.169Z,3.02
2019-03-17T21:10:50.223Z,3.12
2019-03-17T21:13:19.456Z,2.83
2019-03-17T21:15:48.330Z,3.08
2019-03-17T21:18:17.348Z,2.80
2019-03-17T21:20:46.419Z,3.37
2019-03-17T21:23:15.312Z,3.10
2019-03-17T21:25:46.794Z,3.02
2019-03-17T21:28:15.752Z,3.15
2019-03-17T21:30:44.853Z,3.33
2019-03-17T21:33:14.409Z,1.95
2019-03-17T21:35:43.459Z,2.67
2019-03-17T21:38:12.478Z,2.45
2019-03-17T21:41:01.388Z,2.72
2019-03-17T21:43:12.185Z,2.98
2019-03-17T21:45:41.145Z,3.72
2019-03-17T21:48:10.050Z,2.67
2019-03-17T21:50:39.475Z,3.40
2019-03-17T21:53:08.426Z,2.90
2019-03-17T21:55:37.311Z,3.98
2019-03-17T21:58:08.319Z,3.02
2019-03-17T22:00:36.996Z,2.52
2019-03-17T22:03:05.929Z,2.50
2019-03-17T22:05:34.842Z,2.08
2019-03-17T22:08:03.717Z,2.02
2019-03-17T22:10:32.848Z,2.22
2019-03-17T22:13:01.722Z,2.92
2019-03-17T22:15:30.690Z,2.33
2019-03-17T22:17:59.648Z,3.10
2019-03-17T22:20:29.567Z,3.05
2019-03-17T22:22:58.441Z,2.60
2019-03-17T22:25:27.419Z,3.08
2019-03-17T22:28:07.882Z,2.72
2019-03-17T22:30:27.071Z,2.80
2019-03-17T22:32:56.146Z,2.80
2019-03-17T22:35:25.019Z,2.52
2019-03-17T22:37:55.187Z,2.30
2019-03-17T22:40:25.336Z,2.70
2019-03-17T22:42:54.291Z,2.30
2019-03-17T22:45:23.316Z,2.95
2019-03-17T22:47:52.304Z,3.20
2019-03-17T22:50:21.254Z,2.52
2019-03-17T22:52:51.721Z,2.05
2019-03-17T22:55:20.669Z,2.37
2019-03-17T22:57:52.659Z,2.83
2019-03-17T23:00:36.314Z,2.83
2019-03-17T23:03:08.172Z,2.62
2019-03-17T23:05:38.512Z,2.60
2019-03-17T23:08:07.490Z,2.47
2019-03-17T23:10:36.378Z,2.30
2019-03-17T23:13:05.231Z,2.37
2019-03-17T23:15:35.767Z,2.40
2019-03-17T23:18:05.124Z,2.92
2019-03-17T23:20:33.988Z,1.90
2019-03-17T23:23:03.513Z,2.42
2019-03-17T23:25:32.395Z,2.00
2019-03-17T23:28:01.297Z,2.35
2019-03-17T23:30:30.218Z,2.90
2019-03-17T23:32:59.106Z,2.27
2019-03-17T23:35:28.012Z,2.70
2019-03-17T23:37:56.943Z,2.10
2019-03-17T23:40:26.873Z,3.05
2019-03-17T23:42:55.780Z,3.00
2019-03-17T23:45:24.651Z,2.70
2019-03-17T23:47:53.615Z,2.80
2019-03-17T23:50:22.604Z,2.02
2019-03-17T23:52:51.474Z,2.08
2019-03-17T23:55:20.416Z,2.37
2019-03-17T23:57:49.461Z,2.50
